sensor_id;sensor_type;location;lat;lon;timestamp;P1;durP1;ratioP1;P2;durP2;ratioP2
6864;SDS011;3471;49.678;8.388;2022-08-26T00:00:53;17.33;;;6.10;;
6864;SDS011;3471;49.678;8.388;2022-08-26T00:03:19;4.20;;;3.80;;
6864;SDS011;3471;49.678;8.388;2022-08-26T00:05:46;4.10;;;3.70;;
6864;SDS011;3471;49.678;8.388;2022-08-26T00:08:13;7.00;;;4.00;;
6864;SDS011;3471;49.678;8.388;2022-08-26T00:10:40;6.80;;;4.40;;
6864;SDS011;3471;49.678;8.388;2022-08-26T00:13:06;5.47;;;4.95;;
6864;SDS011;3471;49.678;8.388;2022-08-26T00:15:34;5.90;;;5.00;;
6864;SDS011;3471;49.678;8.388;2022-08-26T00:17:59;5.10;;;4.70;;
6864;SDS011;3471;49.678;8.388;2022-08-26T00:20:27;4.97;;;4.47;;
6864;SDS011;3471;49.678;8.388;2022-08-26T00:22:54;7.13;;;5.00;;
6864;SDS011;3471;49.678;8.388;2022-08-26T00:25:21;4.40;;;4.00;;
6864;SDS011;3471;49.678;8.388;2022-08-26T00:27:46;5.45;;;4.32;;
6864;SDS011;3471;49.678;8.388;2022-08-26T00:30:14;5.43;;;4.57;;
6864;SDS011;3471;49.678;8.388;2022-08-26T00:32:42;6.78;;;5.03;;
6864;SDS011;3471;49.678;8.388;2022-08-26T00:35:09;7.90;;;3.50;;
6864;SDS011;3471;49.678;8.388;2022-08-26T00:37:35;3.78;;;3.47;;
6864;SDS011;3471;49.678;8.388;2022-08-26T00:40:03;7.00;;;4.40;;
6864;SDS011;3471;49.678;8.388;2022-08-26T00:42:30;5.80;;;4.65;;
6864;SDS011;3471;49.678;8.388;2022-08-26T00:44:55;5.63;;;5.13;;
6864;SDS011;3471;49.678;8.388;2022-08-26T00:47:22;5.60;;;4.10;;
6864;SDS011;3471;49.678;8.388;2022-08-26T00:49:53;4.40;;;4.00;;
6864;SDS011;3471;49.678;8.388;2022-08-26T00:52:21;4.95;;;4.45;;
6864;SDS011;3471;49.678;8.388;2022-08-26T00:55:08;7.20;;;5.53;;
6864;SDS011;3471;49.678;8.388;2022-08-26T00:57:38;6.93;;;4.90;;
6864;SDS011;3471;49.678;8.388;2022-08-26T01:00:07;10.63;;;6.00;;
6864;SDS011;3471;49.678;8.388;2022-08-26T01:02:37;9.73;;;4.43;;
6864;SDS011;3471;49.678;8.388;2022-08-26T01:05:03;8.05;;;5.70;;
6864;SDS011;3471;49.678;8.388;2022-08-26T01:07:31;7.82;;;5.00;;
6864;SDS011;3471;49.678;8.388;2022-08-26T01:09:58;7.10;;;4.00;;
6864;SDS011;3471;49.678;8.388;2022-08-26T01:12:26;5.80;;;4.50;;
6864;SDS011;3471;49.678;8.388;2022-08-26T01:14:55;5.00;;;4.60;;
6864;SDS011;3471;49.678;8.388;2022-08-26T01:17:21;12.80;;;5.00;;
6864;SDS011;3471;49.678;8.388;2022-08-26T01:19:48;4.80;;;4.00;;
6864;SDS011;3471;49.678;8.388;2022-08-26T01:22:21;7.75;;;5.78;;
6864;SDS011;3471;49.678;8.388;2022-08-26T01:24:51;5.45;;;4.57;;
6864;SDS011;3471;49.678;8.388;2022-08-26T01:27:17;8.25;;;5.28;;
6864;SDS011;3471;49.678;8.388;2022-08-26T01:29:46;10.10;;;4.95;;
6864;SDS011;3471;49.678;8.388;2022-08-26T01:32:14;4.35;;;3.95;;
6864;SDS011;3471;49.678;8.388;2022-08-26T01:34:43;6.50;;;5.25;;
6864;SDS011;3471;49.678;8.388;2022-08-26T01:37:16;6.47;;;5.80;;
6864;SDS011;3471;49.678;8.388;2022-08-26T01:39:46;9.70;;;4.68;;
6864;SDS011;3471;49.678;8.388;2022-08-26T01:42:15;5.00;;;4.10;;
6864;SDS011;3471;49.678;8.388;2022-08-26T01:44:45;5.10;;;4.10;;
6864;SDS011;3471;49.678;8.388;2022-08-26T01:47:13;5.15;;;4.20;;
6864;SDS011;3471;49.678;8.388;2022-08-26T01:49:41;13.20;;;6.05;;
6864;SDS011;3471;49.678;8.388;2022-08-26T01:52:08;7.30;;;4.43;;
6864;SDS011;3471;49.678;8.388;2022-08-26T01:54:40;5.97;;;5.10;;
6864;SDS011;3471;49.678;8.388;2022-08-26T01:57:05;14.60;;;4.65;;
6864;SDS011;3471;49.678;8.388;2022-08-26T01:59:31;3.83;;;3.53;;
6864;SDS011;3471;49.678;8.388;2022-08-26T02:01:59;6.70;;;4.53;;
6864;SDS011;3471;49.678;8.388;2022-08-26T02:04:26;5.07;;;4.53;;
6864;SDS011;3471;49.678;8.388;2022-08-26T02:07:14;6.70;;;4.30;;
6864;SDS011;3471;49.678;8.388;2022-08-26T02:09:41;6.82;;;4.88;;
6864;SDS011;3471;49.678;8.388;2022-08-26T02:12:08;6.57;;;5.30;;
6864;SDS011;3471;49.678;8.388;2022-08-26T02:14:36;5.13;;;4.63;;
6864;SDS011;3471;49.678;8.388;2022-08-26T02:17:06;7.32;;;5.10;;
6864;SDS011;3471;49.678;8.388;2022-08-26T02:19:34;6.30;;;4.47;;
6864;SDS011;3471;49.678;8.388;2022-08-26T02:22:03;10.90;;;4.37;;
6864;SDS011;3471;49.678;8.388;2022-08-26T02:27:15;5.30;;;4.80;;
6864;SDS011;3471;49.678;8.388;2022-08-26T02:29:44;3.72;;;3.40;;
6864;SDS011;3471;49.678;8.388;2022-08-26T02:32:13;4.95;;;4.10;;
6864;SDS011;3471;49.678;8.388;2022-08-26T02:34:38;7.17;;;4.67;;
6864;SDS011;3471;49.678;8.388;2022-08-26T02:37:06;5.60;;;4.90;;
6864;SDS011;3471;49.678;8.388;2022-08-26T02:39:33;6.95;;;5.28;;
6864;SDS011;3471;49.678;8.388;2022-08-26T02:42:02;15.00;;;5.72;;
6864;SDS011;3471;49.678;8.388;2022-08-26T02:44:29;7.75;;;4.80;;
6864;SDS011;3471;49.678;8.388;2022-08-26T02:46:55;20.15;;;5.55;;
6864;SDS011;3471;49.678;8.388;2022-08-26T02:49:21;12.67;;;5.20;;
6864;SDS011;3471;49.678;8.388;2022-08-26T02:51:48;4.07;;;3.78;;
6864;SDS011;3471;49.678;8.388;2022-08-26T02:54:14;6.97;;;5.43;;
6864;SDS011;3471;49.678;8.388;2022-08-26T02:56:41;6.93;;;4.77;;
6864;SDS011;3471;49.678;8.388;2022-08-26T02:59:07;17.95;;;6.78;;
6864;SDS011;3471;49.678;8.388;2022-08-26T03:01:36;6.47;;;4.75;;
6864;SDS011;3471;49.678;8.388;2022-08-26T03:04:03;9.60;;;4.82;;
6864;SDS011;3471;49.678;8.388;2022-08-26T03:06:29;6.72;;;5.55;;
6864;SDS011;3471;49.678;8.388;2022-08-26T03:08:55;5.30;;;4.50;;
6864;SDS011;3471;49.678;8.388;2022-08-26T03:11:21;6.45;;;4.93;;
6864;SDS011;3471;49.678;8.388;2022-08-26T03:13:48;9.13;;;5.20;;
6864;SDS011;3471;49.678;8.388;2022-08-26T03:16:14;5.45;;;4.60;;
6864;SDS011;3471;49.678;8.388;2022-08-26T03:18:40;6.18;;;5.00;;
6864;SDS011;3471;49.678;8.388;2022-08-26T03:21:11;6.70;;;5.97;;
6864;SDS011;3471;49.678;8.388;2022-08-26T03:23:39;6.60;;;5.85;;
6864;SDS011;3471;49.678;8.388;2022-08-26T03:26:06;5.32;;;4.57;;
6864;SDS011;3471;49.678;8.388;2022-08-26T03:28:35;5.32;;;3.88;;
6864;SDS011;3471;49.678;8.388;2022-08-26T03:31:21;6.83;;;5.03;;
6864;SDS011;3471;49.678;8.388;2022-08-26T03:33:47;4.53;;;3.78;;
6864;SDS011;3471;49.678;8.388;2022-08-26T03:36:12;4.47;;;3.80;;
6864;SDS011;3471;49.678;8.388;2022-08-26T03:38:39;8.60;;;5.20;;
6864;SDS011;3471;49.678;8.388;2022-08-26T03:41:05;7.95;;;4.22;;
6864;SDS011;3471;49.678;8.388;2022-08-26T03:43:32;5.25;;;4.70;;
6864;SDS011;3471;49.678;8.388;2022-08-26T03:45:58;5.25;;;4.75;;
6864;SDS011;3471;49.678;8.388;2022-08-26T03:48:23;5.47;;;4.97;;
6864;SDS011;3471;49.678;8.388;2022-08-26T03:50:49;10.90;;;5.77;;
6864;SDS011;3471;49.678;8.388;2022-08-26T03:53:14;8.97;;;5.93;;
6864;SDS011;3471;49.678;8.388;2022-08-26T03:55:40;7.32;;;4.90;;
6864;SDS011;3471;49.678;8.388;2022-08-26T03:58:06;11.00;;;6.25;;
6864;SDS011;3471;49.678;8.388;2022-08-26T04:00:31;6.77;;;5.07;;
6864;SDS011;3471;49.678;8.388;2022-08-26T04:02:57;10.17;;;6.17;;
6864;SDS011;3471;49.678;8.388;2022-08-26T04:05:23;5.87;;;5.27;;
6864;SDS011;3471;49.678;8.388;2022-08-26T04:07:49;6.68;;;5.75;;
6864;SDS011;3471;49.678;8.388;2022-08-26T04:10:16;5.80;;;4.10;;
6864;SDS011;3471;49.678;8.388;2022-08-26T04:12:43;7.43;;;5.05;;
6864;SDS011;3471;49.678;8.388;2022-08-26T04:15:10;6.20;;;4.85;;
6864;SDS011;3471;49.678;8.388;2022-08-26T04:17:37;11.90;;;5.27;;
6864;SDS011;3471;49.678;8.388;2022-08-26T04:20:04;6.72;;;4.93;;
6864;SDS011;3471;49.678;8.388;2022-08-26T04:22:31;7.50;;;6.45;;
6864;SDS011;3471;49.678;8.388;2022-08-26T04:24:57;12.18;;;6.35;;
6864;SDS011;3471;49.678;8.388;2022-08-26T04:27:22;4.87;;;4.47;;
6864;SDS011;3471;49.678;8.388;2022-08-26T04:29:48;5.67;;;5.17;;
6864;SDS011;3471;49.678;8.388;2022-08-26T04:32:14;5.00;;;4.43;;
6864;SDS011;3471;49.678;8.388;2022-08-26T04:34:40;5.43;;;4.72;;
6864;SDS011;3471;49.678;8.388;2022-08-26T04:37:05;8.27;;;4.80;;
6864;SDS011;3471;49.678;8.388;2022-08-26T04:39:32;7.78;;;4.13;;
6864;SDS011;3471;49.678;8.388;2022-08-26T04:41:58;5.30;;;4.90;;
6864;SDS011;3471;49.678;8.388;2022-08-26T04:44:25;4.80;;;3.75;;
6864;SDS011;3471;49.678;8.388;2022-08-26T04:46:52;8.20;;;5.70;;
6864;SDS011;3471;49.678;8.388;2022-08-26T04:49:18;6.90;;;5.10;;
6864;SDS011;3471;49.678;8.388;2022-08-26T04:51:45;6.88;;;4.63;;
6864;SDS011;3471;49.678;8.388;2022-08-26T04:54:13;5.82;;;4.00;;
6864;SDS011;3471;49.678;8.388;2022-08-26T04:56:40;9.15;;;5.45;;
6864;SDS011;3471;49.678;8.388;2022-08-26T04:59:10;6.35;;;5.75;;
6864;SDS011;3471;49.678;8.388;2022-08-26T05:01:40;5.18;;;4.68;;
6864;SDS011;3471;49.678;8.388;2022-08-26T05:04:08;5.85;;;4.32;;
6864;SDS011;3471;49.678;8.388;2022-08-26T05:06:33;4.78;;;4.28;;
6864;SDS011;3471;49.678;8.388;2022-08-26T05:08:59;7.60;;;5.60;;
6864;SDS011;3471;49.678;8.388;2022-08-26T05:11:25;6.55;;;5.25;;
6864;SDS011;3471;49.678;8.388;2022-08-26T05:13:50;17.35;;;5.72;;
6864;SDS011;3471;49.678;8.388;2022-08-26T05:16:16;6.37;;;5.10;;
6864;SDS011;3471;49.678;8.388;2022-08-26T05:18:43;11.57;;;4.85;;
6864;SDS011;3471;49.678;8.388;2022-08-26T05:21:20;10.15;;;5.45;;
6864;SDS011;3471;49.678;8.388;2022-08-26T05:23:48;4.00;;;3.60;;
6864;SDS011;3471;49.678;8.388;2022-08-26T05:26:16;4.93;;;4.22;;
6864;SDS011;3471;49.678;8.388;2022-08-26T05:28:43;4.65;;;4.15;;
6864;SDS011;3471;49.678;8.388;2022-08-26T05:31:12;5.55;;;5.00;;
6864;SDS011;3471;49.678;8.388;2022-08-26T05:33:39;19.25;;;4.93;;
6864;SDS011;3471;49.678;8.388;2022-08-26T05:36:09;6.93;;;5.17;;
6864;SDS011;3471;49.678;8.388;2022-08-26T05:38:36;4.70;;;4.20;;
6864;SDS011;3471;49.678;8.388;2022-08-26T05:41:03;6.90;;;4.47;;
6864;SDS011;3471;49.678;8.388;2022-08-26T05:43:29;5.25;;;4.85;;
6864;SDS011;3471;49.678;8.388;2022-08-26T05:45:54;6.40;;;5.80;;
6864;SDS011;3471;49.678;8.388;2022-08-26T05:48:21;5.63;;;4.15;;
6864;SDS011;3471;49.678;8.388;2022-08-26T05:50:48;6.18;;;4.70;;
6864;SDS011;3471;49.678;8.388;2022-08-26T05:53:16;6.97;;;5.75;;
6864;SDS011;3471;49.678;8.388;2022-08-26T05:58:12;8.80;;;5.10;;
6864;SDS011;3471;49.678;8.388;2022-08-26T06:00:38;7.33;;;6.10;;
6864;SDS011;3471;49.678;8.388;2022-08-26T06:03:04;9.20;;;5.70;;
6864;SDS011;3471;49.678;8.388;2022-08-26T06:05:30;5.43;;;4.90;;
6864;SDS011;3471;49.678;8.388;2022-08-26T06:07:55;5.07;;;4.32;;
6864;SDS011;3471;49.678;8.388;2022-08-26T06:10:42;11.55;;;6.13;;
6864;SDS011;3471;49.678;8.388;2022-08-26T06:13:12;5.63;;;4.50;;
6864;SDS011;3471;49.678;8.388;2022-08-26T06:15:42;6.82;;;5.55;;
6864;SDS011;3471;49.678;8.388;2022-08-26T06:18:10;8.75;;;5.35;;
6864;SDS011;3471;49.678;8.388;2022-08-26T06:20:36;7.38;;;4.60;;
6864;SDS011;3471;49.678;8.388;2022-08-26T06:23:07;14.30;;;5.13;;
6864;SDS011;3471;49.678;8.388;2022-08-26T06:25:52;5.78;;;5.20;;
6864;SDS011;3471;49.678;8.388;2022-08-26T06:28:18;23.42;;;6.28;;
6864;SDS011;3471;49.678;8.388;2022-08-26T06:30:44;10.15;;;5.72;;
6864;SDS011;3471;49.678;8.388;2022-08-26T06:33:09;9.13;;;4.50;;
6864;SDS011;3471;49.678;8.388;2022-08-26T06:35:38;10.03;;;5.03;;
6864;SDS011;3471;49.678;8.388;2022-08-26T06:38:05;6.13;;;4.45;;
6864;SDS011;3471;49.678;8.388;2022-08-26T06:40:32;8.07;;;5.50;;
6864;SDS011;3471;49.678;8.388;2022-08-26T06:42:58;7.00;;;4.65;;
6864;SDS011;3471;49.678;8.388;2022-08-26T06:45:24;5.70;;;4.00;;
6864;SDS011;3471;49.678;8.388;2022-08-26T06:47:50;6.40;;;5.68;;
6864;SDS011;3471;49.678;8.388;2022-08-26T06:50:16;4.75;;;4.35;;
6864;SDS011;3471;49.678;8.388;2022-08-26T06:52:42;6.10;;;5.43;;
6864;SDS011;3471;49.678;8.388;2022-08-26T06:55:08;5.23;;;4.73;;
6864;SDS011;3471;49.678;8.388;2022-08-26T06:57:34;6.70;;;4.77;;
6864;SDS011;3471;49.678;8.388;2022-08-26T07:00:03;6.30;;;5.27;;
6864;SDS011;3471;49.678;8.388;2022-08-26T07:02:32;4.47;;;4.07;;
6864;SDS011;3471;49.678;8.388;2022-08-26T07:04:58;6.10;;;5.38;;
6864;SDS011;3471;49.678;8.388;2022-08-26T07:07:24;4.43;;;4.03;;
6864;SDS011;3471;49.678;8.388;2022-08-26T07:09:49;11.10;;;6.40;;
6864;SDS011;3471;49.678;8.388;2022-08-26T07:12:15;9.60;;;3.90;;
6864;SDS011;3471;49.678;8.388;2022-08-26T07:14:41;6.45;;;5.00;;
6864;SDS011;3471;49.678;8.388;2022-08-26T07:17:07;4.90;;;4.50;;
6864;SDS011;3471;49.678;8.388;2022-08-26T07:19:32;5.80;;;5.00;;
6864;SDS011;3471;49.678;8.388;2022-08-26T07:22:02;7.38;;;5.10;;
6864;SDS011;3471;49.678;8.388;2022-08-26T07:24:29;6.32;;;4.05;;
6864;SDS011;3471;49.678;8.388;2022-08-26T07:27:00;4.88;;;4.38;;
6864;SDS011;3471;49.678;8.388;2022-08-26T07:29:26;4.70;;;4.30;;
6864;SDS011;3471;49.678;8.388;2022-08-26T07:31:53;8.60;;;5.68;;
6864;SDS011;3471;49.678;8.388;2022-08-26T07:34:19;9.57;;;5.27;;
6864;SDS011;3471;49.678;8.388;2022-08-26T07:36:45;5.35;;;4.85;;
6864;SDS011;3471;49.678;8.388;2022-08-26T07:39:11;5.00;;;4.50;;
6864;SDS011;3471;49.678;8.388;2022-08-26T07:41:37;5.07;;;4.25;;
6864;SDS011;3471;49.678;8.388;2022-08-26T07:44:02;7.20;;;4.72;;
6864;SDS011;3471;49.678;8.388;2022-08-26T07:46:28;7.63;;;6.50;;
6864;SDS011;3471;49.678;8.388;2022-08-26T07:48:54;6.30;;;4.70;;
6864;SDS011;3471;49.678;8.388;2022-08-26T07:51:20;8.55;;;4.88;;
6864;SDS011;3471;49.678;8.388;2022-08-26T07:53:46;5.82;;;5.30;;
6864;SDS011;3471;49.678;8.388;2022-08-26T07:56:13;5.40;;;5.00;;
6864;SDS011;3471;49.678;8.388;2022-08-26T07:58:39;6.75;;;5.28;;
6864;SDS011;3471;49.678;8.388;2022-08-26T08:01:05;6.00;;;5.23;;
6864;SDS011;3471;49.678;8.388;2022-08-26T08:03:31;6.38;;;5.07;;
6864;SDS011;3471;49.678;8.388;2022-08-26T08:05:57;10.35;;;4.63;;
6864;SDS011;3471;49.678;8.388;2022-08-26T08:08:23;6.25;;;5.10;;
6864;SDS011;3471;49.678;8.388;2022-08-26T08:10:48;4.80;;;4.40;;
6864;SDS011;3471;49.678;8.388;2022-08-26T08:13:14;6.47;;;5.22;;
6864;SDS011;3471;49.678;8.388;2022-08-26T08:15:40;11.65;;;5.95;;
6864;SDS011;3471;49.678;8.388;2022-08-26T08:18:06;4.80;;;4.40;;
6864;SDS011;3471;49.678;8.388;2022-08-26T08:20:32;7.25;;;5.72;;
6864;SDS011;3471;49.678;8.388;2022-08-26T08:22:59;7.75;;;5.95;;
6864;SDS011;3471;49.678;8.388;2022-08-26T08:25:25;8.13;;;5.88;;
6864;SDS011;3471;49.678;8.388;2022-08-26T08:27:51;8.30;;;6.15;;
6864;SDS011;3471;49.678;8.388;2022-08-26T08:30:18;9.10;;;5.67;;
6864;SDS011;3471;49.678;8.388;2022-08-26T08:32:45;5.53;;;5.03;;
6864;SDS011;3471;49.678;8.388;2022-08-26T08:35:13;7.45;;;6.65;;
6864;SDS011;3471;49.678;8.388;2022-08-26T08:37:40;9.80;;;5.75;;
6864;SDS011;3471;49.678;8.388;2022-08-26T08:40:07;8.47;;;6.27;;
6864;SDS011;3471;49.678;8.388;2022-08-26T08:42:44;9.00;;;5.75;;
6864;SDS011;3471;49.678;8.388;2022-08-26T08:45:16;6.97;;;6.28;;
6864;SDS011;3471;49.678;8.388;2022-08-26T08:47:51;19.63;;;6.27;;
6864;SDS011;3471;49.678;8.388;2022-08-26T08:50:21;7.77;;;6.43;;
6864;SDS011;3471;49.678;8.388;2022-08-26T08:52:55;7.88;;;5.80;;
6864;SDS011;3471;49.678;8.388;2022-08-26T08:55:24;9.55;;;6.25;;
6864;SDS011;3471;49.678;8.388;2022-08-26T08:58:04;15.20;;;7.32;;
6864;SDS011;3471;49.678;8.388;2022-08-26T09:00:38;6.97;;;6.30;;
6864;SDS011;3471;49.678;8.388;2022-08-26T09:03:18;11.27;;;4.93;;
6864;SDS011;3471;49.678;8.388;2022-08-26T09:06:08;18.80;;;7.30;;
6864;SDS011;3471;49.678;8.388;2022-08-26T09:08:41;5.00;;;4.50;;
6864;SDS011;3471;49.678;8.388;2022-08-26T09:11:08;14.10;;;6.45;;
6864;SDS011;3471;49.678;8.388;2022-08-26T09:13:33;18.67;;;4.95;;
6864;SDS011;3471;49.678;8.388;2022-08-26T09:16:06;9.52;;;7.35;;
6864;SDS011;3471;49.678;8.388;2022-08-26T09:21:17;7.30;;;5.90;;
6864;SDS011;3471;49.678;8.388;2022-08-26T09:23:43;18.92;;;7.25;;
6864;SDS011;3471;49.678;8.388;2022-08-26T09:26:21;7.90;;;5.95;;
6864;SDS011;3471;49.678;8.388;2022-08-26T09:29:00;5.97;;;5.47;;
6864;SDS011;3471;49.678;8.388;2022-08-26T09:31:29;6.38;;;5.45;;
6864;SDS011;3471;49.678;8.388;2022-08-26T09:36:42;8.63;;;6.75;;
6864;SDS011;3471;49.678;8.388;2022-08-26T09:42:33;19.80;;;6.97;;
6864;SDS011;3471;49.678;8.388;2022-08-26T09:47:29;6.93;;;5.77;;
6864;SDS011;3471;49.678;8.388;2022-08-26T09:52:28;7.17;;;6.50;;
6864;SDS011;3471;49.678;8.388;2022-08-26T09:55:27;4.80;;;4.20;;
6864;SDS011;3471;49.678;8.388;2022-08-26T09:57:48;10.67;;;6.57;;
6864;SDS011;3471;49.678;8.388;2022-08-26T10:03:04;7.67;;;7.03;;
6864;SDS011;3471;49.678;8.388;2022-08-26T10:08:39;5.00;;;4.50;;
6864;SDS011;3471;49.678;8.388;2022-08-26T10:13:46;7.17;;;4.20;;
6864;SDS011;3471;49.678;8.388;2022-08-26T10:16:18;4.00;;;3.57;;
6864;SDS011;3471;49.678;8.388;2022-08-26T10:18:55;7.67;;;3.13;;
6864;SDS011;3471;49.678;8.388;2022-08-26T10:24:23;6.75;;;4.93;;
6864;SDS011;3471;49.678;8.388;2022-08-26T10:30:15;7.83;;;4.53;;
6864;SDS011;3471;49.678;8.388;2022-08-26T10:32:54;5.93;;;5.37;;
6864;SDS011;3471;49.678;8.388;2022-08-26T10:35:21;8.10;;;5.90;;
6864;SDS011;3471;49.678;8.388;2022-08-26T10:37:51;7.33;;;3.17;;
6864;SDS011;3471;49.678;8.388;2022-08-26T10:40:24;4.90;;;4.50;;
6864;SDS011;3471;49.678;8.388;2022-08-26T10:43:03;4.93;;;4.50;;
6864;SDS011;3471;49.678;8.388;2022-08-26T10:45:36;5.20;;;3.90;;
6864;SDS011;3471;49.678;8.388;2022-08-26T10:48:11;4.63;;;3.27;;
6864;SDS011;3471;49.678;8.388;2022-08-26T10:50:42;4.83;;;3.03;;
6864;SDS011;3471;49.678;8.388;2022-08-26T10:55:36;11.90;;;4.07;;
6864;SDS011;3471;49.678;8.388;2022-08-26T10:58:15;5.47;;;4.00;;
6864;SDS011;3471;49.678;8.388;2022-08-26T11:01:04;12.43;;;7.20;;
6864;SDS011;3471;49.678;8.388;2022-08-26T11:04:04;6.00;;;4.30;;
6864;SDS011;3471;49.678;8.388;2022-08-26T11:06:42;4.60;;;4.20;;
6864;SDS011;3471;49.678;8.388;2022-08-26T11:09:10;10.43;;;5.10;;
6864;SDS011;3471;49.678;8.388;2022-08-26T11:11:56;6.43;;;5.03;;
6864;SDS011;3471;49.678;8.388;2022-08-26T11:16:54;11.13;;;5.97;;
6864;SDS011;3471;49.678;8.388;2022-08-26T11:22:09;5.17;;;4.47;;
6864;SDS011;3471;49.678;8.388;2022-08-26T11:37:31;8.43;;;4.07;;
6864;SDS011;3471;49.678;8.388;2022-08-26T11:40:09;4.30;;;3.77;;
6864;SDS011;3471;49.678;8.388;2022-08-26T11:42:45;8.40;;;6.53;;
6864;SDS011;3471;49.678;8.388;2022-08-26T11:47:42;4.97;;;4.40;;
6864;SDS011;3471;49.678;8.388;2022-08-26T11:50:13;8.83;;;4.67;;
6864;SDS011;3471;49.678;8.388;2022-08-26T11:55:26;14.80;;;3.60;;
6864;SDS011;3471;49.678;8.388;2022-08-26T11:57:54;4.67;;;4.27;;
6864;SDS011;3471;49.678;8.388;2022-08-26T12:00:29;3.03;;;2.77;;
6864;SDS011;3471;49.678;8.388;2022-08-26T12:02:58;4.37;;;3.97;;
6864;SDS011;3471;49.678;8.388;2022-08-26T12:05:28;5.57;;;4.47;;
6864;SDS011;3471;49.678;8.388;2022-08-26T12:08:01;13.40;;;4.90;;
6864;SDS011;3471;49.678;8.388;2022-08-26T12:10:32;5.63;;;4.67;;
6864;SDS011;3471;49.678;8.388;2022-08-26T12:12:59;9.70;;;5.03;;
6864;SDS011;3471;49.678;8.388;2022-08-26T12:15:26;4.30;;;3.90;;
6864;SDS011;3471;49.678;8.388;2022-08-26T12:17:54;5.00;;;4.60;;
6864;SDS011;3471;49.678;8.388;2022-08-26T12:20:30;5.33;;;4.83;;
6864;SDS011;3471;49.678;8.388;2022-08-26T12:23:22;4.30;;;3.53;;
6864;SDS011;3471;49.678;8.388;2022-08-26T12:26:18;5.23;;;4.83;;
6864;SDS011;3471;49.678;8.388;2022-08-26T12:28:49;3.60;;;3.30;;
6864;SDS011;3471;49.678;8.388;2022-08-26T12:34:08;4.53;;;4.23;;
6864;SDS011;3471;49.678;8.388;2022-08-26T12:36:43;4.37;;;4.07;;
6864;SDS011;3471;49.678;8.388;2022-08-26T12:39:14;3.57;;;3.27;;
6864;SDS011;3471;49.678;8.388;2022-08-26T12:41:54;3.27;;;3.00;;
6864;SDS011;3471;49.678;8.388;2022-08-26T12:50:18;3.83;;;3.53;;
6864;SDS011;3471;49.678;8.388;2022-08-26T12:53:13;4.27;;;3.43;;
6864;SDS011;3471;49.678;8.388;2022-08-26T12:55:51;5.40;;;3.50;;
6864;SDS011;3471;49.678;8.388;2022-08-26T12:58:31;3.17;;;2.90;;
6864;SDS011;3471;49.678;8.388;2022-08-26T13:03:29;3.70;;;3.40;;
6864;SDS011;3471;49.678;8.388;2022-08-26T13:06:22;7.00;;;3.90;;
6864;SDS011;3471;49.678;8.388;2022-08-26T13:11:31;15.90;;;6.80;;
6864;SDS011;3471;49.678;8.388;2022-08-26T13:13:58;5.97;;;3.50;;
6864;SDS011;3471;49.678;8.388;2022-08-26T13:16:31;14.10;;;5.33;;
6864;SDS011;3471;49.678;8.388;2022-08-26T13:18:59;32.05;;;3.75;;
6864;SDS011;3471;49.678;8.388;2022-08-26T13:21:30;8.27;;;6.20;;
6864;SDS011;3471;49.678;8.388;2022-08-26T13:24:04;4.30;;;3.90;;
6864;SDS011;3471;49.678;8.388;2022-08-26T13:26:35;6.93;;;6.33;;
6864;SDS011;3471;49.678;8.388;2022-08-26T13:29:02;4.23;;;3.80;;
6864;SDS011;3471;49.678;8.388;2022-08-26T13:31:29;4.47;;;4.17;;
6864;SDS011;3471;49.678;8.388;2022-08-26T13:33:56;2.50;;;2.30;;
6864;SDS011;3471;49.678;8.388;2022-08-26T13:36:22;9.97;;;4.03;;
6864;SDS011;3471;49.678;8.388;2022-08-26T13:38:47;12.00;;;2.87;;
6864;SDS011;3471;49.678;8.388;2022-08-26T13:41:13;4.35;;;3.95;;
6864;SDS011;3471;49.678;8.388;2022-08-26T13:43:39;5.87;;;5.37;;
6864;SDS011;3471;49.678;8.388;2022-08-26T13:46:04;3.03;;;2.83;;
6864;SDS011;3471;49.678;8.388;2022-08-26T13:48:30;4.00;;;3.70;;
6864;SDS011;3471;49.678;8.388;2022-08-26T13:50:57;6.70;;;3.80;;
6864;SDS011;3471;49.678;8.388;2022-08-26T13:53:24;5.03;;;3.33;;
6864;SDS011;3471;49.678;8.388;2022-08-26T13:55:49;2.37;;;2.17;;
6864;SDS011;3471;49.678;8.388;2022-08-26T13:58:15;10.93;;;4.20;;
6864;SDS011;3471;49.678;8.388;2022-08-26T14:00:41;4.10;;;3.70;;
6864;SDS011;3471;49.678;8.388;2022-08-26T14:03:07;3.20;;;2.90;;
6864;SDS011;3471;49.678;8.388;2022-08-26T14:05:33;2.93;;;2.70;;
6864;SDS011;3471;49.678;8.388;2022-08-26T14:07:59;6.30;;;5.70;;
6864;SDS011;3471;49.678;8.388;2022-08-26T14:10:25;4.97;;;4.57;;
6864;SDS011;3471;49.678;8.388;2022-08-26T14:12:51;9.77;;;8.70;;
6864;SDS011;3471;49.678;8.388;2022-08-26T14:15:18;6.50;;;5.83;;
6864;SDS011;3471;49.678;8.388;2022-08-26T14:17:44;47.50;;;8.73;;
6864;SDS011;3471;49.678;8.388;2022-08-26T14:20:32;6.73;;;5.63;;
6864;SDS011;3471;49.678;8.388;2022-08-26T14:22:58;5.60;;;5.10;;
6864;SDS011;3471;49.678;8.388;2022-08-26T14:25:24;5.50;;;5.05;;
6864;SDS011;3471;49.678;8.388;2022-08-26T14:27:50;15.13;;;6.27;;
6864;SDS011;3471;49.678;8.388;2022-08-26T14:30:17;14.40;;;7.70;;
6864;SDS011;3471;49.678;8.388;2022-08-26T14:32:48;3.37;;;3.07;;
6864;SDS011;3471;49.678;8.388;2022-08-26T14:35:20;6.17;;;5.57;;
6864;SDS011;3471;49.678;8.388;2022-08-26T14:37:47;4.60;;;4.30;;
6864;SDS011;3471;49.678;8.388;2022-08-26T14:40:15;6.20;;;4.77;;
6864;SDS011;3471;49.678;8.388;2022-08-26T14:42:45;10.03;;;6.23;;
6864;SDS011;3471;49.678;8.388;2022-08-26T14:45:16;5.30;;;4.80;;
6864;SDS011;3471;49.678;8.388;2022-08-26T14:47:46;13.03;;;7.57;;
6864;SDS011;3471;49.678;8.388;2022-08-26T14:50:13;9.40;;;7.73;;
6864;SDS011;3471;49.678;8.388;2022-08-26T14:52:50;6.13;;;5.40;;
6864;SDS011;3471;49.678;8.388;2022-08-26T14:55:35;6.47;;;5.97;;
6864;SDS011;3471;49.678;8.388;2022-08-26T14:58:04;8.90;;;7.13;;
6864;SDS011;3471;49.678;8.388;2022-08-26T15:00:30;5.60;;;5.20;;
6864;SDS011;3471;49.678;8.388;2022-08-26T15:02:56;10.47;;;7.80;;
6864;SDS011;3471;49.678;8.388;2022-08-26T15:05:22;7.43;;;6.63;;
6864;SDS011;3471;49.678;8.388;2022-08-26T15:07:48;10.53;;;5.00;;
6864;SDS011;3471;49.678;8.388;2022-08-26T15:10:14;8.33;;;6.60;;
6864;SDS011;3471;49.678;8.388;2022-08-26T15:12:40;10.53;;;7.87;;
6864;SDS011;3471;49.678;8.388;2022-08-26T15:15:07;12.03;;;8.17;;
6864;SDS011;3471;49.678;8.388;2022-08-26T15:17:34;10.50;;;8.30;;
6864;SDS011;3471;49.678;8.388;2022-08-26T15:20:01;9.00;;;7.13;;
6864;SDS011;3471;49.678;8.388;2022-08-26T15:22:28;9.13;;;8.40;;
6864;SDS011;3471;49.678;8.388;2022-08-26T15:24:55;15.00;;;10.17;;
6864;SDS011;3471;49.678;8.388;2022-08-26T15:27:21;15.03;;;10.43;;
6864;SDS011;3471;49.678;8.388;2022-08-26T15:29:46;19.83;;;12.90;;
6864;SDS011;3471;49.678;8.388;2022-08-26T15:32:12;21.63;;;10.47;;
6864;SDS011;3471;49.678;8.388;2022-08-26T15:34:38;10.40;;;9.60;;
6864;SDS011;3471;49.678;8.388;2022-08-26T15:37:04;13.10;;;10.80;;
6864;SDS011;3471;49.678;8.388;2022-08-26T15:39:30;15.47;;;12.83;;
6864;SDS011;3471;49.678;8.388;2022-08-26T15:41:55;12.10;;;10.90;;
6864;SDS011;3471;49.678;8.388;2022-08-26T15:44:24;20.30;;;16.57;;
6864;SDS011;3471;49.678;8.388;2022-08-26T15:46:50;34.73;;;19.07;;
6864;SDS011;3471;49.678;8.388;2022-08-26T15:49:18;22.30;;;18.27;;
6864;SDS011;3471;49.678;8.388;2022-08-26T15:51:43;21.13;;;18.93;;
6864;SDS011;3471;49.678;8.388;2022-08-26T15:54:10;26.30;;;23.53;;
6864;SDS011;3471;49.678;8.388;2022-08-26T15:56:37;23.27;;;20.33;;
6864;SDS011;3471;49.678;8.388;2022-08-26T15:59:03;28.02;;;25.10;;
6864;SDS011;3471;49.678;8.388;2022-08-26T16:01:31;25.60;;;20.23;;
6864;SDS011;3471;49.678;8.388;2022-08-26T16:03:58;25.27;;;22.60;;
6864;SDS011;3471;49.678;8.388;2022-08-26T16:06:25;24.70;;;22.30;;
6864;SDS011;3471;49.678;8.388;2022-08-26T16:08:53;26.10;;;19.73;;
6864;SDS011;3471;49.678;8.388;2022-08-26T16:11:20;27.27;;;22.40;;
6864;SDS011;3471;49.678;8.388;2022-08-26T16:13:46;23.02;;;20.50;;
6864;SDS011;3471;49.678;8.388;2022-08-26T16:16:12;18.70;;;16.77;;
6864;SDS011;3471;49.678;8.388;2022-08-26T16:18:38;28.52;;;19.35;;
6864;SDS011;3471;49.678;8.388;2022-08-26T16:21:05;23.75;;;17.98;;
6864;SDS011;3471;49.678;8.388;2022-08-26T16:23:31;23.03;;;18.47;;
6864;SDS011;3471;49.678;8.388;2022-08-26T16:25:57;27.13;;;20.23;;
6864;SDS011;3471;49.678;8.388;2022-08-26T16:28:23;21.95;;;18.27;;
6864;SDS011;3471;49.678;8.388;2022-08-26T16:30:49;26.60;;;18.92;;
6864;SDS011;3471;49.678;8.388;2022-08-26T16:33:15;20.02;;;18.02;;